Time;durP1;ratioP1;P1;durP2;ratioP2;P2;SDS_P1;SDS_P2;PMS_P1;PMS_P2;Temp;Humidity;BMP_temperature;BMP_pressure;BME280_temperature;BME280_humidity;BME280_pressure;Samples;Min_cycle;Max_cycle;Signal;HPM_P1;HPM_P2
2023/03/28 00:00:11;;;;;;;1.65;0.70;;;6.10;99.90;;;;;;1888156;75;21124;-87
2023/03/28 00:03:02;;;;;;;0.95;0.60;;;6.10;99.90;;;;;;1886288;75;21125;-87
2023/03/28 00:05:56;;;;;;;3.77;0.93;;;6.00;99.90;;;;;;1878940;75;21208;-88
2023/03/28 00:08:50;;;;;;;2.20;0.60;;;6.00;99.90;;;;;;1877014;75;21216;-87
2023/03/28 00:11:41;;;;;;;1.47;0.75;;;5.90;99.90;;;;;;1883623;75;21149;-87
2023/03/28 00:14:34;;;;;;;3.85;0.90;;;5.90;99.90;;;;;;1888062;75;21184;-87
2023/03/28 00:17:26;;;;;;;1.85;0.70;;;5.90;99.90;;;;;;1893114;75;21177;-87
2023/03/28 00:20:18;;;;;;;3.15;0.80;;;6.10;99.90;;;;;;1877608;75;21152;-87
2023/03/28 00:23:10;;;;;;;1.22;0.60;;;6.00;99.90;;;;;;1884778;74;21111;-87
2023/03/28 00:26:07;;;;;;;1.70;0.60;;;6.00;99.90;;;;;;1898087;75;21645;-86
2023/03/28 00:29:00;;;;;;;2.70;0.65;;;6.30;99.90;;;;;;1893465;75;21117;-87
2023/03/28 00:31:52;;;;;;;1.42;0.60;;;6.40;99.90;;;;;;1870647;75;21068;-87
2023/03/28 00:34:43;;;;;;;1.90;0.75;;;6.40;99.90;;;;;;1883999;75;21095;-86
2023/03/28 00:37:34;;;;;;;1.92;0.80;;;6.30;99.90;;;;;;1879870;75;21110;-87
2023/03/28 00:40:26;;;;;;;1.85;0.80;;;6.20;99.90;;;;;;1884051;75;21140;-88
2023/03/28 00:43:19;;;;;;;3.90;0.90;;;6.10;99.90;;;;;;1884249;75;21140;-88
2023/03/28 00:46:16;;;;;;;3.67;1.00;;;6.10;99.90;;;;;;1886695;75;21134;-87
2023/03/28 00:49:12;;;;;;;2.92;0.80;;;6.00;99.90;;;;;;1886069;75;21162;-87
2023/03/28 00:52:06;;;;;;;2.65;1.00;;;6.00;99.90;;;;;;1886221;75;21098;-86
2023/03/28 00:54:58;;;;;;;2.12;0.60;;;5.90;99.90;;;;;;1885728;75;21059;-87
2023/03/28 00:57:51;;;;;;;2.47;1.00;;;5.90;99.90;;;;;;1884016;75;21102;-87
2023/03/28 01:00:45;;;;;;;1.57;0.82;;;6.00;99.90;;;;;;1881713;75;21133;-87
2023/03/28 01:03:40;;;;;;;1.80;0.78;;;6.10;99.90;;;;;;1881111;75;21090;-88
2023/03/28 01:06:34;;;;;;;2.37;1.00;;;6.00;99.90;;;;;;1887153;75;21096;-87
2023/03/28 01:09:27;;;;;;;2.75;0.75;;;6.00;99.90;;;;;;1886017;75;21123;-87
2023/03/28 01:12:30;;;;;;;;;;;;;;;;;;;;;
2023/03/28 01:15:23;;;;;;;2.95;1.00;;;5.90;99.90;;;;;;1894922;75;21091;-87
2023/03/28 01:18:17;;;;;;;2.70;0.90;;;5.90;99.90;;;;;;1889894;75;21161;-86
2023/03/28 01:21:53;;;;;;;2.25;1.00;;;5.90;99.90;;;;;;1890150;75;21196;-87
2023/03/28 01:25:28;;;;;;;2.72;0.80;;;5.90;99.90;;;;;;1861189;75;21112;-87
2023/03/28 01:28:27;;;;;;;2.50;1.00;;;5.70;99.90;;;;;;1885775;75;21082;-86
2023/03/28 01:31:52;;;;;;;1.85;0.70;;;5.70;99.90;;;;;;1881138;75;21111;-86
2023/03/28 01:35:02;;;;;;;3.17;0.85;;;5.70;99.90;;;;;;1884746;75;21099;-87
2023/03/28 01:37:58;;;;;;;2.17;0.67;;;5.80;99.90;;;;;;1908514;75;21075;-87
2023/03/28 01:43:44;;;;;;;1.55;0.60;;;5.70;99.90;;;;;;1958338;72;22128;-87
2023/03/28 01:46:35;;;;;;;;;;;5.60;99.90;;;;;;1932790;73;21122;-87
2023/03/28 01:49:31;;;;;;;5.87;0.98;;;5.50;99.90;;;;;;1944721;73;20220;-87
2023/03/28 01:52:26;;;;;;;2.87;1.00;;;5.60;99.90;;;;;;1881657;75;21122;-87
2023/03/28 01:58:08;;;;;;;2.80;0.78;;;5.50;99.90;;;;;;1957072;72;22567;-88
2023/03/28 02:01:12;;;;;;;2.70;0.90;;;5.50;99.90;;;;;;1873066;76;21067;-88
2023/03/28 02:04:06;;;;;;;2.45;0.78;;;5.50;99.90;;;;;;1894519;75;21103;-88
2023/03/28 02:07:03;;;;;;;1.87;0.90;;;5.50;99.90;;;;;;1886301;75;21384;-87
2023/03/28 02:09:58;;;;;;;3.87;0.80;;;5.40;99.90;;;;;;1885657;75;21121;-87
2023/03/28 02:13:10;;;;;;;1.65;0.80;;;5.50;99.90;;;;;;1884679;75;21146;-87
2023/03/28 02:16:10;;;;;;;6.12;0.80;;;5.20;99.90;;;;;;1887957;75;21119;-87
2023/03/28 02:19:11;;;;;;;2.72;0.72;;;4.90;99.90;;;;;;1885322;75;21550;-87
2023/03/28 02:22:11;;;;;;;2.58;0.60;;;4.90;99.90;;;;;;1882955;75;21180;-88
2023/03/28 02:25:11;;;;;;;2.70;0.80;;;4.80;99.90;;;;;;1895838;74;21113;-88
2023/03/28 02:28:14;;;;;;;1.67;0.60;;;4.70;99.90;;;;;;1789517;75;21270;-87
2023/03/28 02:31:10;;;;;;;2.83;0.70;;;4.80;99.90;;;;;;1883877;75;21075;-87
2023/03/28 02:34:02;;;;;;;2.62;0.82;;;4.70;99.90;;;;;;1889483;75;21141;-88
2023/03/28 02:36:57;;;;;;;1.98;0.80;;;4.80;99.90;;;;;;1876142;75;21093;-87
2023/03/28 02:39:54;;;;;;;1.37;0.60;;;4.60;99.90;;;;;;1880051;75;21172;-88
2023/03/28 02:46:06;;;;;;;3.30;1.00;;;4.50;99.90;;;;;;1953042;73;28037;-88
2023/03/28 02:52:13;;;;;;;1.98;0.80;;;4.50;99.90;;;;;;1947696;72;22147;-87
2023/03/28 02:55:11;;;;;;;1.40;0.68;;;4.40;99.90;;;;;;1905175;74;21192;-88
2023/03/28 02:58:09;;;;;;;2.37;0.75;;;4.40;99.90;;;;;;1884969;75;21114;-88
2023/03/28 03:01:02;;;;;;;2.27;0.80;;;4.10;99.90;;;;;;1874130;75;21107;-87
2023/03/28 03:03:54;;;;;;;1.57;0.80;;;3.90;99.90;;;;;;1872373;76;21674;-87
2023/03/28 03:06:48;;;;;;;3.17;1.10;;;3.80;99.90;;;;;;1880796;75;21575;-87
2023/03/28 03:09:41;;;;;;;1.50;0.70;;;3.70;99.90;;;;;;1872573;75;21111;-87
2023/03/28 03:12:36;;;;;;;1.72;0.90;;;3.60;99.90;;;;;;1872537;76;21338;-86
2023/03/28 03:15:29;;;;;;;2.33;0.70;;;3.60;99.90;;;;;;1894149;75;21137;-86
2023/03/28 03:18:21;;;;;;;1.92;1.12;;;3.50;99.90;;;;;;1894076;75;21356;-87
2023/03/28 03:21:12;;;;;;;2.62;0.93;;;3.50;99.90;;;;;;1890685;75;21578;-87
2023/03/28 03:24:05;;;;;;;2.12;0.85;;;3.50;99.90;;;;;;1885783;75;21098;-87
2023/03/28 03:26:56;;;;;;;2.17;0.90;;;3.50;99.90;;;;;;1874793;75;21162;-87
2023/03/28 03:29:49;;;;;;;3.65;1.60;;;3.60;99.90;;;;;;1876291;75;21060;-87
2023/03/28 03:32:42;;;;;;;2.47;1.57;;;3.60;99.90;;;;;;1874529;76;21110;-87
2023/03/28 03:35:34;;;;;;;2.62;1.10;;;3.70;99.90;;;;;;1887658;75;21095;-87
2023/03/28 03:38:27;;;;;;;1.87;1.30;;;3.70;99.90;;;;;;1876237;75;21506;-88
2023/03/28 03:41:19;;;;;;;2.30;1.35;;;3.80;99.90;;;;;;1900158;75;21149;-88
2023/03/28 03:44:12;;;;;;;2.85;1.27;;;3.90;99.90;;;;;;1904680;75;21156;-87
2023/03/28 03:47:03;;;;;;;3.20;1.25;;;4.00;99.90;;;;;;1872326;76;21176;-87
2023/03/28 03:49:55;;;;;;;3.17;1.32;;;4.00;99.90;;;;;;1884053;75;21723;-86
2023/03/28 03:52:47;;;;;;;2.45;1.27;;;4.10;99.90;;;;;;1876596;75;21220;-86
2023/03/28 03:55:40;;;;;;;6.42;1.32;;;4.20;99.90;;;;;;1894109;75;21176;-86
2023/03/28 03:58:31;;;;;;;2.67;1.35;;;4.20;99.90;;;;;;1890472;75;21122;-87
2023/03/28 04:01:28;;;;;;;4.00;1.40;;;4.30;99.90;;;;;;1888711;75;21091;-87
2023/03/28 04:04:18;;;;;;;1.85;1.02;;;4.30;99.90;;;;;;1874020;75;21161;-87
2023/03/28 04:07:29;;;;;;;2.83;1.12;;;4.30;99.90;;;;;;1880396;75;21201;-86
2023/03/28 04:10:21;;;;;;;2.22;1.20;;;4.30;99.90;;;;;;1882583;75;21110;-87
2023/03/28 04:13:12;;;;;;;2.60;1.17;;;4.20;99.90;;;;;;1884221;75;21479;-86
2023/03/28 04:16:06;;;;;;;3.77;1.20;;;4.20;99.90;;;;;;1871702;77;21184;-87
2023/03/28 04:19:02;;;;;;;1.98;1.10;;;4.20;99.90;;;;;;1882582;75;21122;-86
2023/03/28 04:21:55;;;;;;;3.58;1.55;;;4.10;99.90;;;;;;1882368;75;21128;-86
2023/03/28 04:27:31;;;;;;;4.60;1.40;;;4.10;99.90;;;;;;1958231;72;22168;-88
2023/03/28 04:30:24;;;;;;;2.10;1.07;;;4.10;99.90;;;;;;1917089;73;21208;-88
2023/03/28 04:36:15;;;;;;;3.75;1.60;;;4.00;99.90;;;;;;2037787;69;22535;-87
2023/03/28 04:39:07;;;;;;;2.70;1.25;;;3.90;99.90;;;;;;1986262;72;21045;-88
2023/03/28 04:42:16;;;;;;;4.12;1.52;;;3.90;99.90;;;;;;1984416;72;21074;-88
2023/03/28 04:45:11;;;;;;;3.02;1.50;;;3.90;99.90;;;;;;1978761;72;21204;-88
2023/03/28 04:48:03;;;;;;;3.30;1.45;;;3.90;99.90;;;;;;1976891;72;21177;-89
2023/03/28 04:50:56;;;;;;;2.67;1.10;;;3.90;99.90;;;;;;1976405;72;21074;-88
2023/03/28 04:53:47;;;;;;;5.12;1.70;;;4.00;99.90;;;;;;1978830;72;21576;-88
2023/03/28 04:56:44;;;;;;;3.80;1.52;;;3.90;99.90;;;;;;1981935;72;21075;-88
2023/03/28 04:59:39;;;;;;;3.10;1.60;;;3.90;99.90;;;;;;1977074;72;21133;-88
2023/03/28 05:02:31;;;;;;;5.25;1.50;;;3.90;99.90;;;;;;1993088;72;21612;-88
2023/03/28 05:05:24;;;;;;;3.98;1.72;;;3.90;99.90;;;;;;1967023;72;21183;-87
2023/03/28 05:08:18;;;;;;;3.98;1.57;;;3.80;99.90;;;;;;1980700;72;21544;-87
2023/03/28 05:11:10;;;;;;;4.33;1.70;;;3.80;99.90;;;;;;1980292;72;21215;-87
2023/03/28 05:14:01;;;;;;;2.95;1.60;;;3.80;99.90;;;;;;2000567;72;21168;-87
2023/03/28 05:16:54;;;;;;;2.72;1.77;;;3.90;99.90;;;;;;1976930;72;21114;-83
2023/03/28 05:19:50;;;;;;;3.85;1.60;;;3.80;99.90;;;;;;1977015;72;21110;-89
2023/03/28 05:22:43;;;;;;;2.62;1.60;;;3.70;99.90;;;;;;1983641;72;21086;-88
2023/03/28 05:25:35;;;;;;;5.08;1.50;;;3.70;99.90;;;;;;1987437;72;21159;-89
2023/03/28 05:28:27;;;;;;;3.58;1.50;;;3.70;99.90;;;;;;1996764;72;21106;-89
2023/03/28 05:31:19;;;;;;;4.15;1.40;;;3.70;99.90;;;;;;1976743;72;21089;-89
2023/03/28 05:34:12;;;;;;;4.17;1.60;;;3.80;99.90;;;;;;1979597;72;21037;-88
2023/03/28 05:37:05;;;;;;;2.35;1.42;;;3.80;99.90;;;;;;1980459;72;21135;-88
2023/03/28 05:40:04;;;;;;;3.27;1.50;;;3.80;99.90;;;;;;1966261;72;21101;-88
2023/03/28 05:42:54;;;;;;;3.25;1.50;;;3.80;99.90;;;;;;1989339;72;21130;-88
2023/03/28 05:45:47;;;;;;;1.87;1.45;;;3.70;99.90;;;;;;1964756;72;21123;-88
2023/03/28 05:48:43;;;;;;;5.03;1.62;;;3.70;99.90;;;;;;1984216;72;21509;-88
2023/03/28 05:51:36;;;;;;;3.83;1.60;;;3.70;99.90;;;;;;1964270;73;21153;-88
2023/03/28 05:54:27;;;;;;;4.15;1.60;;;3.70;99.90;;;;;;1973454;72;21096;-88
2023/03/28 05:57:19;;;;;;;2.95;1.47;;;3.70;99.90;;;;;;1991020;72;21058;-88
2023/03/28 06:00:13;;;;;;;3.80;1.60;;;3.70;99.90;;;;;;1964679;72;21129;-88
2023/03/28 06:03:08;;;;;;;4.37;1.70;;;3.70;99.90;;;;;;1964588;73;21103;-89
2023/03/28 06:06:03;;;;;;;4.92;1.90;;;3.70;99.90;;;;;;1964415;73;21142;-89
2023/03/28 06:08:54;;;;;;;4.97;1.67;;;3.80;99.90;;;;;;1970764;72;21161;-88
2023/03/28 06:11:47;;;;;;;3.47;1.80;;;3.80;99.90;;;;;;1964435;73;21215;-88
2023/03/28 06:14:38;;;;;;;7.33;2.40;;;3.90;99.90;;;;;;1926793;73;21048;-89
2023/03/28 06:17:31;;;;;;;8.38;2.00;;;3.90;99.90;;;;;;1964271;73;21609;-89
2023/03/28 06:20:22;;;;;;;5.58;2.15;;;3.90;99.90;;;;;;1963853;73;21094;-88
2023/03/28 06:25:55;;;;;;;5.08;2.20;;;3.80;99.90;;;;;;1957591;72;22687;-89
2023/03/28 06:28:47;;;;;;;6.40;2.70;;;3.90;99.90;;;;;;1897265;75;21168;-89
2023/03/28 06:31:42;;;;;;;6.12;2.10;;;3.90;99.90;;;;;;1908259;75;21070;-89
2023/03/28 06:34:34;;;;;;;5.72;2.60;;;4.00;99.90;;;;;;1909812;75;21168;-89
2023/03/28 06:37:25;;;;;;;5.22;2.50;;;4.00;99.90;;;;;;1917080;75;21208;-88
2023/03/28 06:40:21;;;;;;;6.33;2.35;;;4.00;99.90;;;;;;1900453;75;21166;-88
2023/03/28 06:43:13;;;;;;;6.15;2.35;;;4.00;99.90;;;;;;1917204;75;21122;-88
2023/03/28 06:46:06;;;;;;;7.03;2.33;;;4.10;99.90;;;;;;1890294;75;21564;-88
2023/03/28 06:49:00;;;;;;;5.35;2.20;;;4.10;99.90;;;;;;1906602;75;21152;-88
2023/03/28 06:52:10;;;;;;;5.22;2.35;;;4.20;99.90;;;;;;1905460;75;21094;-88
2023/03/28 06:55:03;;;;;;;7.12;2.80;;;4.30;99.90;;;;;;1884198;76;21132;-88
2023/03/28 06:57:55;;;;;;;5.65;2.50;;;4.40;99.90;;;;;;1895610;75;21100;-89
2023/03/28 07:00:48;;;;;;;4.65;2.20;;;4.40;99.90;;;;;;1894398;75;21110;-89
2023/03/28 07:03:44;;;;;;;6.20;2.55;;;4.50;99.90;;;;;;1894815;75;21118;-91
2023/03/28 07:06:37;;;;;;;4.97;2.98;;;4.60;99.90;;;;;;1917479;75;21150;-88
2023/03/28 07:09:29;;;;;;;4.95;2.80;;;4.60;99.90;;;;;;1898562;75;21079;-88
2023/03/28 07:12:21;;;;;;;6.17;2.52;;;4.60;99.90;;;;;;1908738;75;21185;-88
2023/03/28 07:15:13;;;;;;;4.50;2.25;;;4.60;99.90;;;;;;1887510;75;21094;-88
2023/03/28 07:18:09;;;;;;;4.03;2.20;;;4.70;99.90;;;;;;1897355;75;21109;-88
2023/03/28 07:20:58;;;;;;;4.45;1.90;;;4.80;99.90;;;;;;1884339;76;21071;-88
2023/03/28 07:23:52;;;;;;;2.98;1.70;;;4.90;99.90;;;;;;1884312;76;21140;-88
2023/03/28 07:26:46;;;;;;;5.65;2.05;;;4.90;99.90;;;;;;1906456;75;21199;-88
2023/03/28 07:29:38;;;;;;;6.10;2.42;;;5.00;99.90;;;;;;1906324;75;21114;-88
2023/03/28 07:32:29;;;;;;;6.35;2.22;;;5.10;99.90;;;;;;1884179;76;21223;-88
2023/03/28 07:35:22;;;;;;;5.10;2.35;;;5.20;99.90;;;;;;1897264;75;21186;-89
2023/03/28 07:38:14;;;;;;;5.50;2.40;;;5.30;99.90;;;;;;1894806;75;21079;-89
2023/03/28 07:41:14;;;;;;;5.25;2.52;;;5.30;99.90;;;;;;1889817;75;21181;-88
2023/03/28 07:46:45;;;;;;;11.83;5.37;;;5.40;99.90;;;;;;1957852;72;22174;-88
2023/03/28 07:49:38;;;;;;;4.00;2.25;;;5.50;99.90;;;;;;1897132;75;21133;-88
2023/03/28 07:52:29;;;;;;;4.87;2.33;;;5.60;99.90;;;;;;1894292;75;21146;-89
2023/03/28 07:55:20;;;;;;;3.95;1.70;;;5.70;99.90;;;;;;1892436;75;21102;-88
2023/03/28 07:58:12;;;;;;;5.92;2.00;;;5.70;99.90;;;;;;1887002;75;21096;-88
2023/03/28 08:01:11;;;;;;;3.65;2.00;;;5.90;99.90;;;;;;1873470;75;21075;-88
2023/03/28 08:04:08;;;;;;;6.70;1.62;;;5.90;99.90;;;;;;1864418;77;21113;-88
2023/03/28 08:07:01;;;;;;;3.40;1.98;;;6.00;99.90;;;;;;1903002;75;21099;-88
2023/03/28 08:09:52;;;;;;;3.55;1.60;;;6.00;99.90;;;;;;1855096;77;21683;-88
2023/03/28 08:12:47;;;;;;;3.00;1.40;;;6.10;99.90;;;;;;1905242;75;21167;-88
2023/03/28 08:15:38;;;;;;;4.28;1.65;;;6.20;99.90;;;;;;1897131;75;21056;-88
2023/03/28 08:18:30;;;;;;;3.85;1.70;;;6.30;99.90;;;;;;1894586;75;21814;-88
2023/03/28 08:21:23;;;;;;;2.50;1.20;;;6.40;99.90;;;;;;1892624;75;21095;-90
2023/03/28 08:24:16;;;;;;;9.63;3.30;;;6.50;99.90;;;;;;1888650;75;21098;-88
2023/03/28 08:27:11;;;;;;;2.33;1.20;;;6.60;99.90;;;;;;1905283;75;21102;-89
2023/03/28 08:30:05;;;;;;;4.30;1.55;;;6.70;99.90;;;;;;1883194;75;21059;-88
2023/03/28 08:32:58;;;;;;;4.28;1.42;;;6.80;99.90;;;;;;1881569;75;21109;-88
2023/03/28 08:35:52;;;;;;;4.42;2.12;;;6.90;99.90;;;;;;1872684;76;21172;-89
2023/03/28 08:38:44;;;;;;;3.58;1.32;;;7.00;99.90;;;;;;1886024;75;21139;-89
2023/03/28 08:41:48;;;;;;;2.45;1.00;;;7.20;99.90;;;;;;1896451;75;21134;-88
2023/03/28 08:44:53;;;;;;;4.65;1.62;;;7.20;99.90;;;;;;1858371;77;21104;-88
2023/03/28 08:47:53;;;;;;;1.75;1.20;;;7.20;99.90;;;;;;1898739;75;21114;-89
2023/03/28 08:50:47;;;;;;;3.62;1.27;;;7.30;99.90;;;;;;1883298;75;21094;-89
2023/03/28 08:53:42;;;;;;;1.67;1.10;;;7.40;99.90;;;;;;1889788;75;21055;-88
2023/03/28 08:56:38;;;;;;;1.70;0.98;;;7.50;99.90;;;;;;1885702;75;21173;-88
2023/03/28 08:59:34;;;;;;;2.50;1.00;;;7.50;99.90;;;;;;1904542;75;21176;-89
2023/03/28 09:02:28;;;;;;;2.00;1.22;;;7.60;99.90;;;;;;1882984;75;21216;-88
2023/03/28 09:05:24;;;;;;;2.30;0.80;;;7.70;99.90;;;;;;1904394;75;21157;-88
2023/03/28 09:08:39;;;;;;;2.30;0.90;;;7.80;99.90;;;;;;1885833;75;21160;-89
2023/03/28 09:11:38;;;;;;;8.13;1.45;;;7.90;99.90;;;;;;1889447;75;21153;-89
2023/03/28 09:14:53;;;;;;;2.33;1.22;;;8.00;99.90;;;;;;1887730;75;21152;-88
2023/03/28 09:17:50;;;;;;;2.70;1.10;;;8.10;99.90;;;;;;1888417;75;21161;-88
2023/03/28 09:20:45;;;;;;;3.47;1.22;;;8.10;99.90;;;;;;1883789;75;21087;-89
2023/03/28 09:24:08;;;;;;;2.37;1.40;;;8.10;99.90;;;;;;1882695;75;21192;-88
2023/03/28 09:29:47;;;;;;;3.72;1.82;;;8.20;99.90;;;;;;1941781;72;27975;-89
2023/03/28 09:32:41;;;;;;;2.50;1.47;;;8.40;99.90;;;;;;1917505;75;21152;-87
2023/03/28 09:35:34;;;;;;;3.00;1.65;;;8.40;99.90;;;;;;1899688;75;21110;-89
2023/03/28 09:38:28;;;;;;;5.37;1.37;;;8.40;99.90;;;;;;1885075;75;21136;-90
2023/03/28 09:41:23;;;;;;;2.33;1.00;;;8.50;99.90;;;;;;1906415;75;21104;-88
2023/03/28 09:44:20;;;;;;;3.90;1.30;;;8.50;99.90;;;;;;1884564;76;21209;-88
2023/03/28 09:47:29;;;;;;;4.30;1.65;;;8.60;99.90;;;;;;1884490;76;21126;-88
2023/03/28 09:50:22;;;;;;;2.65;1.10;;;8.80;99.90;;;;;;1902043;75;21523;-90
2023/03/28 09:53:22;;;;;;;3.17;1.20;;;8.80;99.90;;;;;;1905019;75;21138;-88
2023/03/28 09:56:14;;;;;;;;;;;9.00;99.90;;;;;;1918006;75;21051;-88
2023/03/28 09:59:12;;;;;;;2.77;1.30;;;9.20;99.90;;;;;;1895030;75;20205;-88
2023/03/28 10:02:26;;;;;;;1.92;0.90;;;9.30;99.90;;;;;;1915840;75;21095;-89
2023/03/28 10:08:27;;;;;;;1.90;0.90;;;9.40;99.90;;;;;;1953492;72;22083;-88
2023/03/28 10:11:21;;;;;;;3.62;1.10;;;9.30;99.90;;;;;;1917478;75;21102;-89
2023/03/28 10:14:30;;;;;;;4.30;1.30;;;9.20;99.90;;;;;;1917409;75;21040;-88
2023/03/28 10:17:25;;;;;;;3.35;1.17;;;9.10;99.90;;;;;;1917553;73;21164;-88
2023/03/28 10:20:20;;;;;;;2.35;1.10;;;9.10;99.90;;;;;;1917436;75;21098;-89
2023/03/28 10:23:15;;;;;;;3.12;1.20;;;9.20;99.90;;;;;;1918193;75;21125;-88
2023/03/28 10:26:10;;;;;;;2.37;1.00;;;9.20;99.90;;;;;;1918159;75;21098;-88
2023/03/28 10:29:07;;;;;;;3.37;1.10;;;9.20;99.90;;;;;;1918838;75;21051;-88
2023/03/28 10:31:59;;;;;;;2.33;1.17;;;9.10;99.90;;;;;;1920110;75;21105;-87
2023/03/28 10:35:02;;;;;;;2.20;1.05;;;9.00;99.90;;;;;;1940711;73;21088;-88
2023/03/28 10:38:00;;;;;;;2.40;1.30;;;9.20;99.90;;;;;;1917458;75;21152;-91
2023/03/28 10:40:55;;;;;;;2.00;0.80;;;9.30;99.90;;;;;;1917520;75;21118;-89
2023/03/28 10:43:52;;;;;;;2.98;0.80;;;9.40;99.90;;;;;;1917517;75;21099;-90
2023/03/28 10:46:59;;;;;;;4.45;1.10;;;9.40;99.90;;;;;;1917557;75;21102;-90
2023/03/28 10:49:57;;;;;;;1.80;1.05;;;9.30;99.90;;;;;;1931456;73;21086;-89
2023/03/28 10:52:52;;;;;;;2.37;1.52;;;9.30;99.90;;;;;;1919414;73;21095;-88
2023/03/28 10:55:49;;;;;;;1.82;0.85;;;9.40;99.90;;;;;;1917559;75;21168;-88
2023/03/28 11:01:33;;;;;;;2.40;1.20;;;9.60;99.90;;;;;;1958602;72;22131;-88
2023/03/28 11:04:37;;;;;;;3.70;0.90;;;9.50;99.90;;;;;;1929172;73;21534;-90
2023/03/28 11:07:34;;;;;;;3.12;1.20;;;9.60;99.90;;;;;;1951370;73;21102;-89
2023/03/28 11:10:35;;;;;;;2.02;0.88;;;9.80;99.90;;;;;;1922875;73;21127;-87
2023/03/28 11:13:34;;;;;;;3.20;1.32;;;10.00;99.90;;;;;;1917493;75;21836;-89
2023/03/28 11:16:29;;;;;;;2.75;1.20;;;10.20;99.90;;;;;;1917358;75;21069;-89
2023/03/28 11:19:30;;;;;;;3.52;1.10;;;10.20;99.90;;;;;;1917219;75;21126;-88
2023/03/28 11:22:28;;;;;;;3.90;2.05;;;10.40;99.90;;;;;;1917612;75;21105;-88
2023/03/28 11:28:06;;;;;;;3.20;1.67;;;10.70;99.90;;;;;;1951865;72;22217;-89
2023/03/28 11:31:00;;;;;;;2.80;1.20;;;10.70;99.90;;;;;;1884292;76;21059;-90
2023/03/28 11:34:00;;;;;;;2.20;1.00;;;10.80;99.90;;;;;;1900815;75;21118;-88
2023/03/28 11:36:55;;;;;;;2.47;0.90;;;10.90;99.90;;;;;;1896638;75;21184;-88
2023/03/28 11:39:50;;;;;;;2.35;0.90;;;11.00;99.90;;;;;;1888055;75;21106;-90
2023/03/28 11:42:46;;;;;;;1.17;0.75;;;11.10;99.90;;;;;;1852287;76;21195;-88
2023/03/28 11:45:41;;;;;;;3.62;0.60;;;10.90;99.90;;;;;;1895898;75;21110;-88
2023/03/28 11:48:37;;;;;;;1.27;0.68;;;11.10;99.90;;;;;;1901590;75;21063;-88
2023/03/28 11:51:33;;;;;;;1.80;0.53;;;11.20;99.90;;;;;;1917303;75;21143;-88
2023/03/28 11:54:31;;;;;;;1.42;0.80;;;11.30;99.90;;;;;;1907881;75;21117;-88
2023/03/28 11:57:28;;;;;;;1.75;1.05;;;11.50;99.90;;;;;;1906159;75;21178;-89
2023/03/28 12:00:27;;;;;;;1.82;0.80;;;11.40;99.90;;;;;;1885474;75;21166;-88
2023/03/28 12:03:24;;;;;;;2.27;0.80;;;11.50;99.60;;;;;;1902290;75;21230;-88
2023/03/28 12:06:19;;;;;;;3.67;0.80;;;11.60;99.50;;;;;;1883953;75;21232;-89
2023/03/28 12:09:16;;;;;;;2.02;0.78;;;11.80;99.10;;;;;;1884400;76;21256;-89
2023/03/28 12:12:12;;;;;;;1.52;0.65;;;11.90;98.80;;;;;;1906751;75;21118;-88
2023/03/28 12:15:08;;;;;;;2.35;0.70;;;12.00;98.20;;;;;;1886258;75;21066;-88
2023/03/28 12:18:06;;;;;;;1.98;0.90;;;12.10;97.50;;;;;;1896831;75;21121;-89
2023/03/28 12:21:01;;;;;;;2.15;0.80;;;12.40;97.10;;;;;;1900577;75;21087;-90
2023/03/28 12:24:03;;;;;;;2.55;0.75;;;12.60;97.00;;;;;;1897184;75;21160;-88
2023/03/28 12:27:03;;;;;;;1.35;0.90;;;12.50;97.10;;;;;;1910173;75;21086;-89
2023/03/28 12:29:59;;;;;;;5.58;0.93;;;12.50;96.80;;;;;;1915861;74;21180;-89
2023/03/28 12:32:57;;;;;;;2.95;0.80;;;12.60;97.40;;;;;;1895238;74;21110;-88
2023/03/28 12:35:50;;;;;;;;;;;12.90;96.50;;;;;;1909934;74;21494;-88
2023/03/28 12:38:45;;;;;;;1.62;0.80;;;13.10;96.20;;;;;;1907724;74;20199;-89
2023/03/28 12:41:41;;;;;;;2.62;0.78;;;13.40;96.80;;;;;;1916266;74;21134;-88
2023/03/28 12:47:31;;;;;;;2.22;1.12;;;13.70;95.90;;;;;;1953938;72;22186;-89
2023/03/28 12:50:26;;;;;;;1.70;0.82;;;13.80;95.80;;;;;;1920322;75;21176;-87
2023/03/28 12:53:20;;;;;;;1.77;0.75;;;13.90;95.10;;;;;;1918184;75;21212;-88
2023/03/28 12:56:15;;;;;;;3.02;0.75;;;14.00;94.00;;;;;;1886078;75;21235;-87
2023/03/28 13:02:45;;;;;;;1.70;0.70;;;14.20;94.00;;;;;;1959228;72;28108;-88
2023/03/28 13:05:41;;;;;;;1.27;0.50;;;14.50;90.60;;;;;;1923743;73;21152;-88
2023/03/28 13:08:37;;;;;;;2.65;0.70;;;14.50;90.30;;;;;;1917261;75;21211;-87
2023/03/28 13:11:35;;;;;;;1.60;0.78;;;14.50;90.00;;;;;;1917359;75;21131;-88
2023/03/28 13:14:34;;;;;;;3.85;1.47;;;14.40;90.00;;;;;;1917603;75;21208;-88
2023/03/28 13:17:27;;;;;;;1.52;1.00;;;14.50;90.60;;;;;;1917862;75;21241;-88
2023/03/28 13:20:27;;;;;;;1.42;0.70;;;14.60;90.00;;;;;;1923049;73;21489;-87
2023/03/28 13:23:21;;;;;;;2.85;0.78;;;14.70;88.80;;;;;;1951170;73;21102;-89
2023/03/28 13:26:13;;;;;;;2.08;0.98;;;14.70;88.50;;;;;;1931006;73;21098;-88
2023/03/28 13:29:07;;;;;;;2.77;1.17;;;14.90;89.10;;;;;;1932960;73;21192;-89
2023/03/28 13:32:05;;;;;;;1.50;0.60;;;15.30;89.50;;;;;;1928259;73;21142;-88
2023/03/28 13:34:59;;;;;;;1.67;0.70;;;15.40;87.80;;;;;;1944879;73;21160;-88
2023/03/28 13:37:50;;;;;;;0.78;0.50;;;15.50;87.80;;;;;;1939909;73;21152;-88
2023/03/28 13:40:50;;;;;;;4.55;0.80;;;15.40;85.50;;;;;;1918560;75;21145;-87
2023/03/28 13:43:44;;;;;;;1.72;0.70;;;15.60;85.30;;;;;;1918726;75;21099;-87
2023/03/28 13:46:39;;;;;;;2.90;1.90;;;15.60;85.50;;;;;;1917895;75;21091;-88
2023/03/28 13:49:38;;;;;;;1.50;0.80;;;16.00;86.00;;;;;;1917652;74;21089;-88
2023/03/28 13:52:31;;;;;;;1.85;0.80;;;16.10;84.50;;;;;;1917356;75;21142;-89
2023/03/28 13:55:24;;;;;;;2.00;0.75;;;16.00;84.20;;;;;;1917324;75;21083;-88
2023/03/28 13:58:15;;;;;;;1.40;0.60;;;16.30;85.30;;;;;;1917182;75;21608;-88
2023/03/28 14:01:10;;;;;;;2.67;1.10;;;16.50;83.50;;;;;;1917106;75;21151;-88
2023/03/28 14:04:02;;;;;;;3.15;0.93;;;16.40;82.20;;;;;;1923255;73;21606;-87
2023/03/28 14:06:55;;;;;;;1.27;0.75;;;16.20;81.10;;;;;;1928538;73;21101;-87
2023/03/28 14:09:46;;;;;;;1.45;0.68;;;16.30;81.60;;;;;;1933299;73;21100;-88
2023/03/28 14:12:39;;;;;;;2.55;0.80;;;16.30;80.30;;;;;;1916861;75;21171;-88
2023/03/28 14:15:33;;;;;;;1.27;0.60;;;16.30;78.70;;;;;;1916983;75;21067;-88
2023/03/28 14:18:30;;;;;;;3.87;0.75;;;16.30;79.10;;;;;;1916836;75;21643;-87
2023/03/28 14:21:27;;;;;;;2.17;0.70;;;16.60;78.10;;;;;;1916757;75;21119;-89
2023/03/28 14:24:22;;;;;;;1.50;0.90;;;16.90;77.30;;;;;;1917169;75;21213;-87
2023/03/28 14:27:17;;;;;;;2.02;0.85;;;17.90;78.30;;;;;;1916923;75;21095;-87
2023/03/28 14:30:19;;;;;;;2.25;0.80;;;18.80;76.60;;;;;;1919479;75;21508;-87
2023/03/28 14:33:20;;;;;;;3.35;0.93;;;20.00;75.90;;;;;;1925080;73;21051;-87
2023/03/28 14:36:12;;;;;;;2.85;0.78;;;20.80;72.30;;;;;;1931669;73;21127;-87
2023/03/28 14:39:09;;;;;;;1.92;0.93;;;21.60;69.90;;;;;;1934598;73;21053;-89
2023/03/28 14:42:05;;;;;;;2.02;0.82;;;22.70;68.70;;;;;;1919731;75;21121;-88
2023/03/28 14:44:56;;;;;;;1.95;0.50;;;23.60;63.80;;;;;;1942062;73;21071;-89
2023/03/28 14:47:49;;;;;;;1.50;0.50;;;23.30;59.40;;;;;;1919582;75;21208;-88
2023/03/28 14:50:42;;;;;;;0.90;0.60;;;23.10;57.80;;;;;;1919490;75;21172;-88
2023/03/28 14:53:39;;;;;;;1.77;0.82;;;22.10;56.00;;;;;;1919747;75;21190;-88
2023/03/28 14:56:30;;;;;;;0.98;0.57;;;21.70;57.30;;;;;;1919943;75;21126;-87
2023/03/28 14:59:24;;;;;;;1.70;0.80;;;21.70;56.20;;;;;;1919967;75;21099;-88
2023/03/28 15:05:28;;;;;;;1.00;0.70;;;22.80;55.70;;;;;;1987943;71;22088;-87
2023/03/28 15:08:25;;;;;;;1.45;0.60;;;23.90;53.10;;;;;;1974497;72;21090;-87
2023/03/28 15:11:19;;;;;;;1.67;0.68;;;24.20;53.70;;;;;;2070569;69;21082;-87
2023/03/28 15:14:16;;;;;;;0.80;0.60;;;24.40;51.80;;;;;;2070894;69;21074;-88
2023/03/28 15:17:09;;;;;;;1.37;0.70;;;23.20;51.20;;;;;;2072428;69;21164;-87
2023/03/28 15:20:03;;;;;;;1.12;0.80;;;22.50;51.50;;;;;;2070570;69;21152;-88
2023/03/28 15:22:57;;;;;;;1.95;1.00;;;22.10;52.20;;;;;;2048763;69;21063;-87
2023/03/28 15:25:48;;;;;;;2.62;1.00;;;22.10;52.30;;;;;;2032733;70;21062;-88
2023/03/28 15:28:41;;;;;;;1.50;0.65;;;21.60;52.70;;;;;;2069697;69;21164;-88
2023/03/28 15:31:33;;;;;;;2.05;1.00;;;21.10;53.40;;;;;;2070573;69;21085;-88
2023/03/28 15:34:26;;;;;;;1.77;1.00;;;20.30;53.90;;;;;;2070493;69;21102;-88
2023/03/28 15:37:21;;;;;;;1.57;0.70;;;20.60;54.60;;;;;;2070441;69;21085;-87
2023/03/28 15:40:27;;;;;;;1.12;0.75;;;20.10;54.40;;;;;;2070472;69;21106;-87
2023/03/28 15:43:40;;;;;;;3.00;1.12;;;19.90;54.70;;;;;;2070348;69;21015;-88
2023/03/28 15:46:33;;;;;;;1.30;0.80;;;20.20;55.20;;;;;;2057397;69;21078;-88
2023/03/28 15:49:25;;;;;;;1.92;0.78;;;21.10;55.10;;;;;;2031988;70;21074;-88
2023/03/28 15:52:19;;;;;;;3.75;1.00;;;22.20;53.70;;;;;;2034509;70;21561;-88
2023/03/28 15:55:17;;;;;;;2.90;1.02;;;22.80;53.20;;;;;;2032282;70;21081;-88
2023/03/28 15:58:12;;;;;;;1.87;1.15;;;23.60;52.10;;;;;;2033855;70;21064;-88
2023/03/28 16:01:26;;;;;;;1.35;0.70;;;25.10;52.30;;;;;;2031838;70;21107;-88
2023/03/28 16:04:27;;;;;;;1.82;0.78;;;24.90;49.30;;;;;;2032786;70;21147;-88
2023/03/28 16:07:19;;;;;;;3.02;0.88;;;24.50;50.00;;;;;;2038839;70;21081;-88